Time;durP1;ratioP1;P1;durP2;ratioP2;P2;SDS_P1;SDS_P2;PMS_P1;PMS_P2;Temp;Humidity;BMP_temperature;BMP_pressure;BME280_temperature;BME280_humidity;BME280_pressure;Samples;Min_cycle;Max_cycle;Signal;HPM_P1;HPM_P2
2023/01/21 00:02:16;;;;;;;;;;;;;;;4.80;71.13;102156.16;5090900;28;5238;-77
2023/01/21 00:04:42;;;;;;;;;;;;;;;4.72;71.54;102159.53;5095186;28;5739;-77
2023/01/21 00:07:09;;;;;;;;;;;;;;;4.83;71.00;102163.03;5093116;28;5230;-77
2023/01/21 00:09:35;;;;;;;;;;;;;;;4.77;71.09;102153.78;5094554;28;5457;-77
2023/01/21 00:12:02;;;;;;;;;;;;;;;4.88;70.65;102156.28;5094702;28;5436;-77
2023/01/21 00:14:28;;;;;;;;;;;;;;;4.76;71.09;102158.28;5093989;28;5545;-77
2023/01/21 00:16:55;;;;;;;;;;;;;;;4.89;70.53;102162.47;5094676;28;5819;-77
2023/01/21 00:19:22;;;;;;;;;;;;;;;4.82;70.79;102156.84;5094000;28;5515;-77
2023/01/21 00:21:48;;;;;;;;;;;;;;;4.74;71.09;102162.06;5091982;28;5491;-77
2023/01/21 00:24:15;;;;;;;;;;;;;;;4.74;71.23;102168.25;5089694;28;5302;-77
2023/01/21 00:26:41;;;;;;;;;;;;;;;4.83;70.72;102171.88;5073615;28;5321;-77
2023/01/21 00:29:08;;;;;;;;;;;;;;;4.73;71.28;102171.88;5092728;28;5409;-77
2023/01/21 00:31:35;;;;;;;;;;;;;;;4.77;71.04;102178.63;5075741;28;5366;-77
2023/01/21 00:34:01;;;;;;;;;;;;;;;4.90;70.69;102191.69;5074960;28;5560;-77
2023/01/21 00:36:28;;;;;;;;;;;;;;;4.90;70.54;102197.00;5094147;28;5344;-77
2023/01/21 00:38:55;;;;;;;;;;;;;;;4.90;70.49;102193.50;5093430;28;5309;-77
2023/01/21 00:41:23;;;;;;;;;;;;;;;4.86;70.81;102195.63;5080094;28;5937;-77
2023/01/21 00:43:49;;;;;;;;;;;;;;;4.91;70.43;102195.19;5092054;28;5317;-78
2023/01/21 00:46:16;;;;;;;;;;;;;;;4.84;70.86;102205.59;5093285;28;5561;-77
2023/01/21 00:48:42;;;;;;;;;;;;;;;4.78;71.07;102204.34;5077172;28;5336;-77
2023/01/21 00:51:09;;;;;;;;;;;;;;;4.80;70.75;102209.53;5094559;28;5399;-77
2023/01/21 00:53:36;;;;;;;;;;;;;;;4.83;70.65;102205.75;5092863;28;5404;-77
2023/01/21 00:56:03;;;;;;;;;;;;;;;4.76;70.91;102208.13;5095242;28;5331;-77
2023/01/21 00:58:30;;;;;;;;;;;;;;;4.81;70.79;102221.06;5074664;28;5517;-77
2023/01/21 01:00:56;;;;;;;;;;;;;;;4.85;70.58;102220.63;5074309;28;5436;-77
2023/01/21 01:03:23;;;;;;;;;;;;;;;4.83;70.56;102225.28;5095095;28;6147;-77
2023/01/21 01:05:49;;;;;;;;;;;;;;;4.80;70.74;102225.56;5092333;28;5840;-77
2023/01/21 01:08:16;;;;;;;;;;;;;;;4.91;70.27;102229.91;5094397;28;5764;-77
2023/01/21 01:10:42;;;;;;;;;;;;;;;4.81;70.59;102235.25;5073851;28;5381;-77
2023/01/21 01:13:09;;;;;;;;;;;;;;;4.92;70.45;102239.63;5081694;28;5341;-77
2023/01/21 01:15:35;;;;;;;;;;;;;;;4.92;70.40;102244.94;5076843;28;5640;-77
2023/01/21 01:18:02;;;;;;;;;;;;;;;4.78;70.68;102246.22;5091978;28;5821;-77
2023/01/21 01:20:28;;;;;;;;;;;;;;;4.86;70.38;102251.69;5093474;28;5403;-77
2023/01/21 01:22:55;;;;;;;;;;;;;;;4.85;70.47;102257.16;5092096;28;5399;-77
2023/01/21 01:25:21;;;;;;;;;;;;;;;4.89;70.32;102258.59;5083967;28;5328;-77
2023/01/21 01:27:48;;;;;;;;;;;;;;;4.86;70.31;102264.22;5092322;28;5351;-77
2023/01/21 01:30:15;;;;;;;;;;;;;;;4.74;71.08;102269.69;5090824;28;5515;-77
2023/01/21 01:32:41;;;;;;;;;;;;;;;4.84;70.49;102274.19;5092718;28;5420;-77
2023/01/21 01:35:08;;;;;;;;;;;;;;;4.88;70.29;102276.44;5094346;28;5385;-77
2023/01/21 01:37:34;;;;;;;;;;;;;;;4.76;70.71;102282.88;5090422;28;5216;-77
2023/01/21 01:40:01;;;;;;;;;;;;;;;4.79;70.74;102274.59;5094328;28;5363;-77
2023/01/21 01:42:27;;;;;;;;;;;;;;;4.76;70.60;102288.22;5092831;28;5420;-77
2023/01/21 01:44:54;;;;;;;;;;;;;;;4.82;70.43;102279.63;5079009;28;5546;-77
2023/01/21 01:47:20;;;;;;;;;;;;;;;4.80;70.63;102278.97;5091627;28;5726;-77
2023/01/21 01:49:47;;;;;;;;;;;;;;;4.92;70.04;102271.66;5094890;28;5315;-78
2023/01/21 01:52:13;;;;;;;;;;;;;;;4.78;70.21;102265.72;5074523;28;5324;-77
2023/01/21 01:54:40;;;;;;;;;;;;;;;4.84;70.41;102271.50;5074388;28;5407;-77
2023/01/21 01:57:06;;;;;;;;;;;;;;;4.97;69.87;102275.59;5091775;28;5385;-78
2023/01/21 01:59:33;;;;;;;;;;;;;;;4.78;70.50;102288.91;5092236;28;5399;-77
2023/01/21 02:02:00;;;;;;;;;;;;;;;4.86;70.24;102285.56;5075701;28;5381;-77
2023/01/21 02:04:26;;;;;;;;;;;;;;;4.85;70.22;102299.88;5091974;28;5930;-77
2023/01/21 02:06:53;;;;;;;;;;;;;;;4.78;70.56;102296.94;5076604;28;5479;-77
2023/01/21 02:09:19;;;;;;;;;;;;;;;4.85;70.18;102303.38;5073433;28;5448;-78
2023/01/21 02:11:46;;;;;;;;;;;;;;;4.86;70.08;102315.78;5091165;28;5554;-77
2023/01/21 02:14:12;;;;;;;;;;;;;;;4.83;70.25;102318.72;5073699;28;5721;-78
2023/01/21 02:16:39;;;;;;;;;;;;;;;4.87;70.28;102320.13;5092943;28;5915;-78
2023/01/21 02:19:05;;;;;;;;;;;;;;;4.85;70.14;102335.44;5092773;28;5330;-78
2023/01/21 02:21:32;;;;;;;;;;;;;;;4.89;70.23;102326.16;5093368;28;5566;-77
2023/01/21 02:23:58;;;;;;;;;;;;;;;4.91;69.85;102326.03;5076542;28;5562;-78
2023/01/21 02:26:25;;;;;;;;;;;;;;;4.82;70.09;102333.03;5091559;28;5359;-78
2023/01/21 02:28:51;;;;;;;;;;;;;;;4.81;70.12;102326.03;5079316;28;5516;-77
2023/01/21 02:31:18;;;;;;;;;;;;;;;4.88;70.00;102339.66;5093686;28;5315;-78
2023/01/21 02:33:44;;;;;;;;;;;;;;;4.85;70.11;102339.94;5094439;28;5504;-77
2023/01/21 02:36:11;;;;;;;;;;;;;;;4.79;70.06;102344.00;5093983;28;5419;-78
2023/01/21 02:38:38;;;;;;;;;;;;;;;4.78;70.18;102343.16;5077303;28;6058;-78
2023/01/21 02:41:04;;;;;;;;;;;;;;;4.90;69.82;102356.38;5077327;28;5363;-77
2023/01/21 02:43:31;;;;;;;;;;;;;;;4.89;69.86;102363.56;5092276;28;5416;-78
2023/01/21 02:45:57;;;;;;;;;;;;;;;4.89;69.94;102379.56;5092841;28;5426;-78
2023/01/21 02:48:24;;;;;;;;;;;;;;;4.93;69.57;102380.97;5085625;28;5926;-78
2023/01/21 02:50:50;;;;;;;;;;;;;;;4.85;69.89;102375.47;5096167;28;5506;-77
2023/01/21 02:53:17;;;;;;;;;;;;;;;4.89;69.77;102379.56;5094629;28;5822;-77
2023/01/21 02:55:43;;;;;;;;;;;;;;;4.85;69.87;102372.81;5096049;28;5466;-78
2023/01/21 02:58:10;;;;;;;;;;;;;;;4.88;69.82;102375.22;5077533;28;5398;-78
2023/01/21 03:00:36;;;;;;;;;;;;;;;4.84;70.05;102373.78;5093912;28;6104;-78
2023/01/21 03:03:03;;;;;;;;;;;;;;;4.88;69.86;102377.91;5091477;28;5262;-78
2023/01/21 03:05:29;;;;;;;;;;;;;;;4.84;70.05;102383.63;5079230;28;5423;-78
2023/01/21 03:07:56;;;;;;;;;;;;;;;4.84;69.81;102386.31;5092512;28;5514;-78
2023/01/21 03:10:23;;;;;;;;;;;;;;;4.85;69.76;102383.47;5092812;28;5610;-77
2023/01/21 03:12:49;;;;;;;;;;;;;;;4.78;69.99;102388.53;5078474;28;5507;-78
2023/01/21 03:18:05;;;;;;;;;;;;;;;4.88;69.71;102404.59;5003417;28;5853;-78
2023/01/21 03:20:32;;;;;;;;;;;;;;;4.86;69.72;102393.19;5077641;28;5532;-78
2023/01/21 03:22:59;;;;;;;;;;;;;;;4.87;69.72;102404.72;5093405;28;5382;-77
2023/01/21 03:25:25;;;;;;;;;;;;;;;4.88;69.71;102403.72;5098622;28;5715;-78
2023/01/21 03:27:52;;;;;;;;;;;;;;;4.82;70.26;102406.94;5077905;28;5390;-78
2023/01/21 03:30:18;;;;;;;;;;;;;;;4.86;69.84;102400.38;5097530;28;5553;-78
2023/01/21 03:32:45;;;;;;;;;;;;;;;4.72;70.32;102405.09;5096336;28;5967;-77
2023/01/21 03:35:12;;;;;;;;;;;;;;;4.96;69.47;102414.56;5100211;28;5482;-78
2023/01/21 03:37:38;;;;;;;;;;;;;;;4.77;70.03;102412.72;5097951;28;5938;-78
2023/01/21 03:40:05;;;;;;;;;;;;;;;4.87;69.82;102426.09;5080739;28;5809;-78
2023/01/21 03:42:31;;;;;;;;;;;;;;;4.84;69.73;102424.53;5098878;28;5740;-78
2023/01/21 03:44:58;;;;;;;;;;;;;;;4.92;69.46;102430.03;5096548;28;5569;-77
2023/01/21 03:47:25;;;;;;;;;;;;;;;4.93;69.42;102430.88;5096114;28;5914;-77
2023/01/21 03:49:51;;;;;;;;;;;;;;;4.92;69.43;102429.19;5098753;28;5729;-77
2023/01/21 03:52:18;;;;;;;;;;;;;;;4.88;69.57;102431.31;5096652;28;5556;-77
2023/01/21 03:54:44;;;;;;;;;;;;;;;4.88;69.95;102433.09;5080474;28;5375;-77
2023/01/21 03:57:11;;;;;;;;;;;;;;;4.87;69.47;102436.75;5082300;28;5580;-78
2023/01/21 03:59:38;;;;;;;;;;;;;;;4.93;69.25;102445.06;5098084;28;5897;-78
2023/01/21 04:02:04;;;;;;;;;;;;;;;4.87;69.49;102444.78;5097679;28;5754;-78
2023/01/21 04:04:31;;;;;;;;;;;;;;;4.90;69.70;102431.97;5081579;28;5565;-77
2023/01/21 04:06:57;;;;;;;;;;;;;;;4.85;69.69;102433.38;5098319;28;5402;-77
2023/01/21 04:09:24;;;;;;;;;;;;;;;4.94;69.37;102435.22;5099084;28;5548;-77
2023/01/21 04:11:50;;;;;;;;;;;;;;;4.75;69.88;102442.19;5097353;28;5452;-78
2023/01/21 04:14:28;;;;;;;;;;;;;;;4.90;69.38;102448.00;5078713;28;6217;-78
2023/01/21 04:17:15;;;;;;;;;;;;;;;5.01;69.07;102463.91;5095281;28;6066;-77
2023/01/21 04:20:01;;;;;;;;;;;;;;;4.90;69.31;102466.69;5101577;28;5461;-78
2023/01/21 04:22:35;;;;;;;;;;;;;;;4.95;69.27;102464.47;5080992;28;5975;-78
2023/01/21 04:25:13;;;;;;;;;;;;;;;4.91;69.28;102470.22;5079988;28;5982;-78
2023/01/21 04:27:42;;;;;;;;;;;;;;;4.93;69.21;102460.25;5097827;28;5440;-77
2023/01/21 04:30:09;;;;;;;;;;;;;;;4.88;69.49;102466.00;5077608;28;5520;-78
2023/01/21 04:32:37;;;;;;;;;;;;;;;4.83;69.54;102459.38;5095685;28;5386;-78
2023/01/21 04:35:03;;;;;;;;;;;;;;;4.87;69.39;102458.97;5095637;28;5930;-78
2023/01/21 04:37:30;;;;;;;;;;;;;;;4.78;69.79;102457.94;5099132;28;5787;-78
2023/01/21 04:39:56;;;;;;;;;;;;;;;4.88;69.48;102458.00;5096327;28;5339;-78
2023/01/21 04:42:23;;;;;;;;;;;;;;;4.88;69.50;102460.66;5079960;28;5740;-78
2023/01/21 04:44:49;;;;;;;;;;;;;;;4.89;69.32;102464.19;5096530;28;5716;-78
2023/01/21 04:47:16;;;;;;;;;;;;;;;4.78;69.70;102462.44;5097854;28;5902;-78
2023/01/21 04:49:42;;;;;;;;;;;;;;;4.80;69.55;102467.66;5097182;28;5949;-78
2023/01/21 04:52:09;;;;;;;;;;;;;;;4.80;69.68;102483.69;5080062;28;5407;-78
2023/01/21 04:54:35;;;;;;;;;;;;;;;4.87;69.52;102479.47;5095903;28;5814;-78
2023/01/21 04:57:02;;;;;;;;;;;;;;;4.97;69.18;102491.03;5095054;28;5792;-78
2023/01/21 04:59:29;;;;;;;;;;;;;;;4.90;69.38;102485.38;5093403;28;5509;-78
2023/01/21 05:01:55;;;;;;;;;;;;;;;4.88;69.26;102490.03;5081078;28;5368;-77
2023/01/21 05:04:22;;;;;;;;;;;;;;;4.93;69.18;102493.13;5083517;28;5745;-78
2023/01/21 05:06:48;;;;;;;;;;;;;;;4.97;69.09;102497.22;5074822;28;5903;-78
2023/01/21 05:09:15;;;;;;;;;;;;;;;4.83;69.38;102494.09;5074686;28;5274;-77
2023/01/21 05:11:41;;;;;;;;;;;;;;;4.85;69.45;102495.63;5075159;28;5318;-77
2023/01/21 05:14:08;;;;;;;;;;;;;;;4.94;69.06;102489.50;5084844;28;5946;-78
2023/01/21 05:16:34;;;;;;;;;;;;;;;5.06;68.64;102500.06;5085476;28;5279;-78
2023/01/21 05:19:01;;;;;;;;;;;;;;;4.91;69.13;102505.78;5058232;28;5264;-78
2023/01/21 05:21:27;;;;;;;;;;;;;;;5.01;68.77;102519.16;5076513;28;5441;-78
2023/01/21 05:23:54;;;;;;;;;;;;;;;5.01;68.85;102532.53;5075604;28;5206;-78
2023/01/21 05:26:20;;;;;;;;;;;;;;;4.93;69.20;102529.66;5071658;28;5785;-78
2023/01/21 05:28:47;;;;;;;;;;;;;;;4.96;68.93;102518.72;5073564;28;5330;-77
2023/01/21 05:31:13;;;;;;;;;;;;;;;4.87;69.18;102517.69;5058512;28;5242;-78
2023/01/21 05:33:42;;;;;;;;;;;;;;;4.94;68.91;102513.53;5071107;28;5267;-77
2023/01/21 05:36:09;;;;;;;;;;;;;;;4.93;68.98;102522.50;5074398;28;5741;-78
2023/01/21 05:38:35;;;;;;;;;;;;;;;4.88;69.20;102522.09;5076009;28;5292;-78
2023/01/21 05:41:02;;;;;;;;;;;;;;;5.08;68.63;102520.31;5076106;28;5465;-78
2023/01/21 05:43:28;;;;;;;;;;;;;;;4.93;68.96;102535.00;5075880;28;5265;-78
2023/01/21 05:45:55;;;;;;;;;;;;;;;4.96;69.05;102545.44;5053269;28;5411;-78
2023/01/21 05:48:21;;;;;;;;;;;;;;;5.01;68.62;102545.88;5060670;28;5333;-78
2023/01/21 05:50:48;;;;;;;;;;;;;;;4.93;69.04;102551.03;5072402;28;5135;-78
2023/01/21 05:53:15;;;;;;;;;;;;;;;4.87;69.13;102554.25;5074798;28;5218;-77
2023/01/21 05:55:41;;;;;;;;;;;;;;;4.98;68.79;102549.66;5075821;28;5227;-77
2023/01/21 05:58:08;;;;;;;;;;;;;;;5.00;68.79;102547.72;5082385;28;5422;-78
2023/01/21 06:00:34;;;;;;;;;;;;;;;4.98;68.88;102559.50;5094918;28;5471;-78
2023/01/21 06:03:01;;;;;;;;;;;;;;;4.94;68.90;102564.28;5078411;28;6109;-78
2023/01/21 06:05:27;;;;;;;;;;;;;;;4.92;69.03;102565.38;5096278;28;5492;-78
2023/01/21 06:07:54;;;;;;;;;;;;;;;4.92;69.02;102576.06;5093442;28;5354;-78
2023/01/21 06:10:20;;;;;;;;;;;;;;;4.92;69.04;102578.72;5068721;28;5566;-78
2023/01/21 06:12:47;;;;;;;;;;;;;;;4.87;69.32;102581.78;5075987;28;5233;-78
2023/01/21 06:15:13;;;;;;;;;;;;;;;4.99;69.14;102579.88;5080102;28;5195;-78
2023/01/21 06:17:40;;;;;;;;;;;;;;;4.88;69.15;102575.50;5091934;28;5541;-78
2023/01/21 06:20:06;;;;;;;;;;;;;;;4.96;68.85;102570.31;5080300;28;5375;-77
2023/01/21 06:22:33;;;;;;;;;;;;;;;4.92;69.05;102568.03;5063683;28;5234;-77
2023/01/21 06:24:59;;;;;;;;;;;;;;;5.01;68.92;102576.09;5076239;28;5257;-78
2023/01/21 06:27:26;;;;;;;;;;;;;;;5.10;68.40;102582.47;5063807;28;5330;-78
2023/01/21 06:29:53;;;;;;;;;;;;;;;4.94;68.79;102566.94;5074640;28;5828;-77
2023/01/21 06:32:19;;;;;;;;;;;;;;;4.92;68.90;102568.03;5011087;28;1266310;-77
2023/01/21 06:34:46;;;;;;;;;;;;;;;4.98;68.83;102563.00;5073948;28;5315;-78
2023/01/21 06:37:12;;;;;;;;;;;;;;;4.91;69.00;102561.88;5075352;28;5227;-78
2023/01/21 06:39:39;;;;;;;;;;;;;;;4.99;68.79;102566.53;5091018;28;5321;-78
2023/01/21 06:42:05;;;;;;;;;;;;;;;4.97;68.83;102573.81;5073656;28;5276;-78
2023/01/21 06:44:32;;;;;;;;;;;;;;;5.02;68.51;102582.28;5094124;28;5505;-78
2023/01/21 06:46:58;;;;;;;;;;;;;;;5.00;68.61;102597.59;5078221;28;5384;-78
2023/01/21 06:49:25;;;;;;;;;;;;;;;4.99;68.57;102604.75;5089646;28;5481;-78
2023/01/21 06:51:51;;;;;;;;;;;;;;;4.97;68.98;102608.53;5055623;28;5210;-78
2023/01/21 06:54:18;;;;;;;;;;;;;;;4.95;68.78;102615.84;5075709;28;5358;-78
2023/01/21 06:56:44;;;;;;;;;;;;;;;5.00;68.67;102617.16;5056674;28;5671;-78
2023/01/21 06:59:11;;;;;;;;;;;;;;;5.01;68.70;102620.66;5100075;28;5388;-78
2023/01/21 07:01:38;;;;;;;;;;;;;;;5.04;68.58;102625.72;5096800;28;5317;-78
2023/01/21 07:04:04;;;;;;;;;;;;;;;5.04;68.50;102625.72;5097858;28;5459;-77
2023/01/21 07:06:31;;;;;;;;;;;;;;;4.97;68.68;102622.75;5098560;28;5643;-78
2023/01/21 07:08:57;;;;;;;;;;;;;;;4.99;68.95;102631.47;5098967;28;5199;-77
2023/01/21 07:11:24;;;;;;;;;;;;;;;4.98;68.69;102640.47;5098741;28;5780;-78
2023/01/21 07:13:50;;;;;;;;;;;;;;;4.94;68.91;102638.16;5099626;28;5389;-78
2023/01/21 07:16:17;;;;;;;;;;;;;;;4.97;68.79;102644.13;5099663;28;6330;-78
2023/01/21 07:18:43;;;;;;;;;;;;;;;5.03;68.71;102657.91;5080571;28;5559;-78
2023/01/21 07:21:10;;;;;;;;;;;;;;;4.97;68.45;102656.59;5099933;28;5905;-78
2023/01/21 07:23:36;;;;;;;;;;;;;;;4.98;68.77;102653.81;5098389;28;5889;-78
2023/01/21 07:26:03;;;;;;;;;;;;;;;5.00;68.55;102659.03;5080782;28;5307;-77
2023/01/21 07:28:30;;;;;;;;;;;;;;;4.95;68.88;102663.91;5080794;28;5536;-78
2023/01/21 07:30:56;;;;;;;;;;;;;;;4.92;69.03;102669.53;5096172;28;5347;-78
2023/01/21 07:33:23;;;;;;;;;;;;;;;4.95;68.70;102669.25;5097568;28;6006;-78
2023/01/21 07:35:50;;;;;;;;;;;;;;;4.98;68.96;102669.00;5078099;28;5654;-78
2023/01/21 07:38:16;;;;;;;;;;;;;;;4.93;69.12;102671.22;5083087;28;5444;-78
2023/01/21 07:40:43;;;;;;;;;;;;;;;4.98;68.55;102675.19;5078036;28;5200;-78
2023/01/21 07:43:09;;;;;;;;;;;;;;;5.01;68.72;102666.91;5094575;28;5305;-77
2023/01/21 07:45:36;;;;;;;;;;;;;;;4.99;68.71;102679.53;5095283;28;5372;-78
2023/01/21 07:48:02;;;;;;;;;;;;;;;5.04;68.44;102675.63;5092972;28;5333;-78
2023/01/21 07:50:29;;;;;;;;;;;;;;;5.07;68.40;102689.56;5076337;28;5338;-78
2023/01/21 07:52:56;;;;;;;;;;;;;;;5.02;68.45;102691.78;5099825;28;5380;-77
2023/01/21 07:55:22;;;;;;;;;;;;;;;4.94;68.93;102696.91;5081472;28;5346;-78
2023/01/21 07:57:49;;;;;;;;;;;;;;;5.12;68.23;102694.53;5082920;28;6266;-78
2023/01/21 08:00:15;;;;;;;;;;;;;;;4.99;68.63;102700.06;5097759;28;5393;-77
2023/01/21 08:02:42;;;;;;;;;;;;;;;5.01;68.41;102706.97;5099610;28;5453;-78
2023/01/21 08:05:08;;;;;;;;;;;;;;;4.99;68.52;102708.91;5098223;28;5550;-78
2023/01/21 08:07:35;;;;;;;;;;;;;;;5.04;68.36;102713.88;5098198;28;5563;-77
2023/01/21 08:10:01;;;;;;;;;;;;;;;5.08;68.20;102709.09;5096734;28;5401;-78
2023/01/21 08:12:28;;;;;;;;;;;;;;;4.97;68.61;102712.69;5097391;28;5696;-78
2023/01/21 08:14:55;;;;;;;;;;;;;;;5.06;68.23;102711.94;5097669;28;5367;-78
2023/01/21 08:17:21;;;;;;;;;;;;;;;5.08;68.23;102717.13;5096782;28;5345;-77
2023/01/21 08:19:48;;;;;;;;;;;;;;;4.95;68.66;102725.34;5080218;28;5637;-78
2023/01/21 08:22:14;;;;;;;;;;;;;;;5.10;68.24;102733.88;5096387;28;5902;-78
2023/01/21 08:24:41;;;;;;;;;;;;;;;4.98;68.67;102733.94;5089847;28;5323;-77
2023/01/21 08:27:07;;;;;;;;;;;;;;;4.98;68.72;102736.59;5076683;28;5254;-77
2023/01/21 08:29:34;;;;;;;;;;;;;;;5.00;68.68;102737.31;5059166;28;5808;-78
2023/01/21 08:32:00;;;;;;;;;;;;;;;4.99;68.59;102742.78;5077472;28;5816;-77
2023/01/21 08:34:27;;;;;;;;;;;;;;;5.06;68.52;102738.63;5077266;28;5226;-77
2023/01/21 08:36:53;;;;;;;;;;;;;;;5.05;68.30;102736.91;5076593;28;5246;-77
2023/01/21 08:39:20;;;;;;;;;;;;;;;5.10;68.17;102741.88;5075088;28;5544;-77
2023/01/21 08:41:47;;;;;;;;;;;;;;;5.01;68.60;102740.84;5089070;28;5271;-78
2023/01/21 08:44:13;;;;;;;;;;;;;;;5.10;68.11;102741.88;5094186;28;5370;-78
2023/01/21 08:46:40;;;;;;;;;;;;;;;5.07;68.21;102750.16;5062363;28;5795;-78
2023/01/21 08:49:06;;;;;;;;;;;;;;;5.09;68.04;102751.72;5093517;28;5342;-78
2023/01/21 08:51:33;;;;;;;;;;;;;;;5.04;68.42;102750.44;5097962;28;5942;-78
2023/01/21 08:53:59;;;;;;;;;;;;;;;5.09;67.94;102757.06;5097527;28;5484;-78
2023/01/21 08:56:26;;;;;;;;;;;;;;;5.07;68.25;102760.84;5095935;28;5909;-78
2023/01/21 08:58:53;;;;;;;;;;;;;;;5.07;68.25;102756.34;5096242;28;5410;-78
2023/01/21 09:01:19;;;;;;;;;;;;;;;5.08;68.25;102762.53;5093286;28;5299;-78
2023/01/21 09:03:46;;;;;;;;;;;;;;;5.06;68.35;102751.13;5080776;28;5584;-78
2023/01/21 09:06:12;;;;;;;;;;;;;;;5.10;68.15;102756.09;5077233;28;5829;-77
2023/01/21 09:08:40;;;;;;;;;;;;;;;5.08;68.38;102754.50;5068563;28;5827;-77
2023/01/21 09:11:08;;;;;;;;;;;;;;;5.02;68.55;102758.56;5095191;28;5613;-78
2023/01/21 09:13:34;;;;;;;;;;;;;;;5.08;68.12;102766.03;5087814;28;5354;-78
2023/01/21 09:16:01;;;;;;;;;;;;;;;5.11;68.12;102765.78;5094277;28;6007;-78
2023/01/21 09:18:27;;;;;;;;;;;;;;;5.01;68.63;102767.56;5091762;28;5770;-77
2023/01/21 09:20:54;;;;;;;;;;;;;;;5.03;68.56;102765.59;5076052;28;5361;-78
2023/01/21 09:23:27;;;;;;;;;;;;;;;5.08;68.11;102771.38;5077425;28;5547;-78
2023/01/21 09:25:53;;;;;;;;;;;;;;;5.08;68.26;102773.22;5069965;28;5321;-78
2023/01/21 09:28:20;;;;;;;;;;;;;;;4.99;68.55;102773.00;5069763;28;5311;-78
2023/01/21 09:30:46;;;;;;;;;;;;;;;5.11;68.12;102773.78;5084542;28;5298;-78
2023/01/21 09:33:13;;;;;;;;;;;;;;;5.07;68.41;102780.38;5060040;28;5837;-78
2023/01/21 09:35:39;;;;;;;;;;;;;;;5.04;68.32;102788.66;5089606;28;5913;-78
2023/01/21 09:38:06;;;;;;;;;;;;;;;5.05;68.42;102795.69;5095927;28;5283;-78
2023/01/21 09:40:32;;;;;;;;;;;;;;;5.14;68.07;102808.25;5058299;28;5198;-78
2023/01/21 09:42:59;;;;;;;;;;;;;;;5.12;68.09;102806.72;5062560;28;5277;-77
2023/01/21 09:45:25;;;;;;;;;;;;;;;5.07;68.05;102814.28;5076961;28;5758;-78
2023/01/21 09:47:53;;;;;;;;;;;;;;;5.06;68.43;102812.56;5055574;28;5247;-78
2023/01/21 09:50:20;;;;;;;;;;;;;;;5.01;68.43;102810.28;5077504;28;5286;-78
2023/01/21 09:52:47;;;;;;;;;;;;;;;5.11;68.22;102813.03;5058118;28;5321;-78
2023/01/21 09:55:13;;;;;;;;;;;;;;;5.05;68.45;102816.22;5073294;28;5258;-78
2023/01/21 09:57:40;;;;;;;;;;;;;;;5.07;68.35;102814.28;5055040;28;5219;-77
2023/01/21 10:00:06;;;;;;;;;;;;;;;5.16;68.14;102810.81;5076147;28;5824;-78
2023/01/21 10:02:33;;;;;;;;;;;;;;;5.02;68.81;102814.63;5079777;28;5831;-78
2023/01/21 10:04:59;;;;;;;;;;;;;;;5.18;67.94;102823.06;5080053;28;5419;-78
2023/01/21 10:07:26;;;;;;;;;;;;;;;5.22;67.73;102824.50;5096316;28;5413;-78
2023/01/21 10:09:53;;;;;;;;;;;;;;;5.18;68.02;102825.75;5075856;28;5416;-78
2023/01/21 10:12:19;;;;;;;;;;;;;;;5.14;68.13;102816.28;5094087;28;5371;-78
2023/01/21 10:14:46;;;;;;;;;;;;;;;5.08;68.33;102822.13;5096410;28;5568;-78
2023/01/21 10:17:12;;;;;;;;;;;;;;;5.17;68.21;102829.38;5096131;28;5309;-78
2023/01/21 10:19:39;;;;;;;;;;;;;;;5.03;68.35;102834.19;5097041;28;5955;-78
2023/01/21 10:22:05;;;;;;;;;;;;;;;5.13;68.47;102837.78;5093254;28;5267;-78
2023/01/21 10:24:32;;;;;;;;;;;;;;;5.24;67.86;102824.38;5096793;28;5897;-78
2023/01/21 10:26:58;;;;;;;;;;;;;;;5.21;67.98;102825.50;5078890;28;5329;-78
2023/01/21 10:29:25;;;;;;;;;;;;;;;5.08;68.51;102824.81;5096084;28;5835;-78
2023/01/21 10:31:51;;;;;;;;;;;;;;;5.14;68.36;102818.94;5094715;28;5842;-78
2023/01/21 10:34:18;;;;;;;;;;;;;;;5.08;68.32;102824.81;5075826;28;5797;-78
2023/01/21 10:36:45;;;;;;;;;;;;;;;5.26;67.83;102827.75;5094112;28;5434;-78
2023/01/21 10:39:11;;;;;;;;;;;;;;;5.16;68.33;102833.03;5094020;28;5771;-78
2023/01/21 10:41:38;;;;;;;;;;;;;;;5.13;68.34;102832.44;5094961;28;5313;-78
2023/01/21 10:44:04;;;;;;;;;;;;;;;5.15;68.16;102825.16;5092775;28;5425;-78
2023/01/21 10:46:31;;;;;;;;;;;;;;;5.11;68.26;102826.38;5096737;28;5840;-78
2023/01/21 10:48:57;;;;;;;;;;;;;;;5.18;68.12;102840.94;5093682;28;5591;-78
2023/01/21 10:51:24;;;;;;;;;;;;;;;5.23;67.98;102833.34;5084218;28;5254;-78
2023/01/21 10:53:50;;;;;;;;;;;;;;;5.20;68.23;102834.47;5096217;28;5619;-78
2023/01/21 10:56:17;;;;;;;;;;;;;;;5.24;68.03;102835.91;5076773;28;5924;-78
2023/01/21 10:58:44;;;;;;;;;;;;;;;5.15;68.08;102835.84;5094535;28;5725;-78
2023/01/21 11:01:10;;;;;;;;;;;;;;;5.23;68.00;102828.88;5095250;28;5885;-78
2023/01/21 11:03:40;;;;;;;;;;;;;;;5.18;68.31;102833.75;5080192;28;5858;-78
2023/01/21 11:06:07;;;;;;;;;;;;;;;5.32;67.83;102834.41;5086733;28;5267;-78
2023/01/21 11:08:34;;;;;;;;;;;;;;;5.34;67.62;102827.13;5092803;28;5337;-78
2023/01/21 11:11:00;;;;;;;;;;;;;;;5.24;68.13;102827.91;5093458;28;5395;-78
2023/01/21 11:13:27;;;;;;;;;;;;;;;5.29;67.73;102830.16;5095599;28;5760;-78
2023/01/21 11:15:53;;;;;;;;;;;;;;;5.11;68.55;102819.22;5075736;28;5475;-78
2023/01/21 11:18:20;;;;;;;;;;;;;;;5.28;67.92;102824.97;5093000;28;5474;-78
2023/01/21 11:20:46;;;;;;;;;;;;;;;5.27;67.87;102824.13;5094005;28;5694;-78
2023/01/21 11:23:13;;;;;;;;;;;;;;;5.22;68.02;102824.50;5077232;28;5678;-78
2023/01/21 11:25:40;;;;;;;;;;;;;;;5.33;67.60;102818.25;5061042;28;5707;-78
2023/01/21 11:28:06;;;;;;;;;;;;;;;5.31;67.79;102824.72;5083385;28;5281;-78
2023/01/21 11:30:33;;;;;;;;;;;;;;;5.21;68.19;102830.00;5077190;28;5468;-78
2023/01/21 11:32:59;;;;;;;;;;;;;;;5.27;68.06;102832.16;5077083;28;5707;-78
2023/01/21 11:35:26;;;;;;;;;;;;;;;5.28;68.00;102827.66;5078061;28;5463;-78
2023/01/21 11:37:53;;;;;;;;;;;;;;;5.28;67.98;102830.31;5084773;28;5933;-78
2023/01/21 11:40:19;;;;;;;;;;;;;;;5.31;67.83;102830.06;5091784;28;5415;-78
2023/01/21 11:42:46;;;;;;;;;;;;;;;4.86;67.69;102764.34;5093491;28;5746;-78
2023/01/21 11:45:12;;;;;;;;;;;;;;;5.22;68.15;102837.03;5096641;28;5380;-78
2023/01/21 11:47:39;;;;;;;;;;;;;;;5.30;68.00;102831.88;5098538;28;5486;-78
2023/01/21 11:50:05;;;;;;;;;;;;;;;5.37;67.65;102826.84;5079343;28;6028;-78
2023/01/21 11:52:32;;;;;;;;;;;;;;;5.20;68.42;102831.78;5097751;28;5434;-78
2023/01/21 11:54:58;;;;;;;;;;;;;;;5.39;67.75;102838.28;5079821;28;5973;-78
2023/01/21 11:57:25;;;;;;;;;;;;;;;5.40;67.58;102840.81;5080644;28;5479;-78
2023/01/21 11:59:52;;;;;;;;;;;;;;;5.38;67.59;102845.44;5080187;28;5457;-78
2023/01/21 12:02:18;;;;;;;;;;;;;;;5.41;67.58;102837.16;5098809;28;5321;-78
2023/01/21 12:04:45;;;;;;;;;;;;;;;5.24;67.96;102837.75;5079971;28;5856;-78
2023/01/21 12:07:11;;;;;;;;;;;;;;;5.29;68.13;102832.84;5081192;28;5383;-78
2023/01/21 12:09:38;;;;;;;;;;;;;;;5.22;68.22;102839.69;5085566;28;5387;-78
2023/01/21 12:12:04;;;;;;;;;;;;;;;5.38;67.71;102839.22;5098265;28;5456;-78
2023/01/21 12:14:31;;;;;;;;;;;;;;;5.40;67.82;102842.63;5078713;28;5370;-78
2023/01/21 12:16:57;;;;;;;;;;;;;;;5.34;67.98;102848.50;5096010;28;5359;-78
2023/01/21 12:19:24;;;;;;;;;;;;;;;5.30;68.22;102850.59;5097494;28;5400;-78
2023/01/21 12:21:51;;;;;;;;;;;;;;;5.40;67.59;102854.16;5080679;28;5862;-78
2023/01/21 12:24:17;;;;;;;;;;;;;;;5.35;67.99;102848.34;5080915;28;5528;-78
2023/01/21 12:26:45;;;;;;;;;;;;;;;5.27;68.25;102840.16;5085222;28;5739;-78
2023/01/21 12:29:11;;;;;;;;;;;;;;;5.40;68.01;102845.31;5096165;28;5390;-78
2023/01/21 12:31:41;;;;;;;;;;;;;;;5.45;67.74;102841.28;5081621;28;5524;-78
2023/01/21 12:34:07;;;;;;;;;;;;;;;5.46;67.47;102842.13;5080446;28;5988;-78
2023/01/21 12:36:34;;;;;;;;;;;;;;;5.33;68.10;102844.97;5079470;28;5881;-78
2023/01/21 12:39:01;;;;;;;;;;;;;;;5.49;67.60;102839.19;5096420;28;5405;-78
2023/01/21 12:41:27;;;;;;;;;;;;;;;5.43;67.76;102845.03;5095043;28;5331;-78
2023/01/21 12:43:54;;;;;;;;;;;;;;;5.35;68.09;102842.16;5078019;28;5425;-78
2023/01/21 12:46:21;;;;;;;;;;;;;;;5.47;67.71;102841.13;5092323;28;5862;-78
2023/01/21 12:48:47;;;;;;;;;;;;;;;5.31;68.13;102844.25;5074699;28;5245;-78
2023/01/21 12:51:14;;;;;;;;;;;;;;;5.44;67.89;102834.25;5096761;28;5448;-78
2023/01/21 12:53:40;;;;;;;;;;;;;;;5.51;67.83;102847.09;5097194;28;5327;-78
2023/01/21 12:56:08;;;;;;;;;;;;;;;5.46;67.88;102836.75;5096972;28;5380;-78
2023/01/21 12:58:34;;;;;;;;;;;;;;;5.49;67.82;102851.69;5096976;28;5386;-78